BCS56H LEVC-LEVT
Flight info
| Callsign | BCS56H |
|---|---|
| Flight time | 0h 56m |
| Altitude | 30000 |
| Route | CENTA N733 CJN L150 RBO N867 DGO |
| Aircraft | B738/M-SDFGHIRWY/LB1 |
Departure
| Time | 2026-05-08 12:23 |
|---|---|
| Airport | Valencia Airport (LEVC) |
Arrival
| Time | 2026-05-08 13:19 |
|---|---|
| Airport | Vitoria Airport (LEVT) |
| Time | Latitude | Longitude | Altitude | Speed | Heading |
|---|---|---|---|---|---|
| 2026-05-08 11:44 | 39.49308 | -0.48171 | 208 ft | 0 kts | 26° |
| 2026-05-08 12:16 | 39.49309 | -0.48170 | 213 ft | 1 kts | 32° |
| 2026-05-08 12:16 | 39.49306 | -0.48157 | 208 ft | 2 kts | 140° |
| 2026-05-08 12:16 | 39.49286 | -0.48175 | 217 ft | 6 kts | 227° |
| 2026-05-08 12:16 | 39.49241 | -0.48208 | 208 ft | 8 kts | 185° |
| 2026-05-08 12:17 | 39.49209 | -0.48156 | 210 ft | 8 kts | 113° |
| 2026-05-08 12:17 | 39.49163 | -0.48136 | 208 ft | 8 kts | 188° |
| 2026-05-08 12:17 | 39.49118 | -0.48114 | 211 ft | 7 kts | 129° |
| 2026-05-08 12:17 | 39.49093 | -0.48058 | 210 ft | 7 kts | 117° |
| 2026-05-08 12:18 | 39.49071 | -0.48002 | 212 ft | 7 kts | 116° |
| 2026-05-08 12:18 | 39.49043 | -0.47925 | 216 ft | 12 kts | 116° |
| 2026-05-08 12:18 | 39.49053 | -0.47807 | 215 ft | 16 kts | 28° |
| 2026-05-08 12:18 | 39.49112 | -0.47894 | 208 ft | 15 kts | 287° |
| 2026-05-08 12:19 | 39.49159 | -0.48016 | 210 ft | 15 kts | 297° |
| 2026-05-08 12:19 | 39.49161 | -0.48134 | 211 ft | 14 kts | 227° |
| 2026-05-08 12:19 | 39.49165 | -0.48247 | 211 ft | 14 kts | 296° |
| 2026-05-08 12:19 | 39.49206 | -0.48354 | 215 ft | 13 kts | 296° |
| 2026-05-08 12:20 | 39.49221 | -0.48460 | 213 ft | 13 kts | 243° |
| 2026-05-08 12:20 | 39.49203 | -0.48492 | 213 ft | 0 kts | 216° |
| 2026-05-08 12:21 | 39.49201 | -0.48493 | 213 ft | 1 kts | 216° |
| 2026-05-08 12:21 | 39.49168 | -0.48510 | 208 ft | 10 kts | 193° |
| 2026-05-08 12:22 | 39.49074 | -0.48504 | 213 ft | 15 kts | 149° |
| 2026-05-08 12:22 | 39.49000 | -0.48340 | 208 ft | 37 kts | 116° |
| 2026-05-08 12:22 | 39.48793 | -0.47795 | 212 ft | 103 kts | 116° |
| 2026-05-08 12:22 | 39.48382 | -0.46716 | 259 ft | 158 kts | 116° |
| 2026-05-08 12:23 | 39.47909 | -0.45395 | 945 ft | 165 kts | 114° |
| 2026-05-08 12:23 | 39.47426 | -0.43974 | 1569 ft | 181 kts | 116° |
| 2026-05-08 12:23 | 39.46763 | -0.42531 | 2228 ft | 190 kts | 124° |
| 2026-05-08 12:23 | 39.46060 | -0.41080 | 3068 ft | 189 kts | 122° |
| 2026-05-08 12:24 | 39.45379 | -0.39639 | 3885 ft | 188 kts | 123° |
| 2026-05-08 12:24 | 39.44650 | -0.38162 | 4355 ft | 208 kts | 123° |
| 2026-05-08 12:24 | 39.43849 | -0.36450 | 4493 ft | 236 kts | 122° |
| 2026-05-08 12:24 | 39.42886 | -0.34631 | 5007 ft | 249 kts | 128° |
| 2026-05-08 12:25 | 39.41724 | -0.32994 | 5827 ft | 247 kts | 145° |
| 2026-05-08 12:25 | 39.40203 | -0.31983 | 6554 ft | 248 kts | 167° |
| 2026-05-08 12:25 | 39.38426 | -0.32089 | 6573 ft | 267 kts | 198° |
| 2026-05-08 12:25 | 39.36833 | -0.33137 | 6957 ft | 249 kts | 211° |
| 2026-05-08 12:26 | 39.35372 | -0.34300 | 7891 ft | 240 kts | 213° |
| 2026-05-08 12:26 | 39.34070 | -0.35587 | 8925 ft | 235 kts | 221° |
| 2026-05-08 12:26 | 39.32908 | -0.37127 | 9513 ft | 249 kts | 228° |
| 2026-05-08 12:26 | 39.31889 | -0.39026 | 9997 ft | 266 kts | 242° |
| 2026-05-08 12:27 | 39.31141 | -0.41240 | 10724 ft | 269 kts | 247° |
| 2026-05-08 12:27 | 39.30568 | -0.43514 | 11719 ft | 267 kts | 254° |
| 2026-05-08 12:27 | 39.30208 | -0.45900 | 12275 ft | 280 kts | 262° |
| 2026-05-08 12:27 | 39.30094 | -0.48443 | 12989 ft | 289 kts | 266° |
| 2026-05-08 12:28 | 39.30132 | -0.51109 | 13524 ft | 304 kts | 271° |
| 2026-05-08 12:28 | 39.30408 | -0.53840 | 14264 ft | 310 kts | 277° |
| 2026-05-08 12:28 | 39.30937 | -0.56593 | 14804 ft | 325 kts | 282° |
| 2026-05-08 12:28 | 39.31726 | -0.59426 | 15116 ft | 347 kts | 290° |
| 2026-05-08 12:29 | 39.32948 | -0.62146 | 15454 ft | 350 kts | 300° |
| 2026-05-08 12:29 | 39.34573 | -0.64499 | 16416 ft | 358 kts | 311° |
| 2026-05-08 12:29 | 39.36545 | -0.66557 | 17026 ft | 372 kts | 318° |
| 2026-05-08 12:29 | 39.38719 | -0.68448 | 17674 ft | 380 kts | 321° |
| 2026-05-08 12:30 | 39.40948 | -0.70328 | 18317 ft | 386 kts | 320° |
| 2026-05-08 12:30 | 39.43190 | -0.72275 | 18895 ft | 390 kts | 319° |
| 2026-05-08 12:30 | 39.44704 | -0.73634 | 19287 ft | 393 kts | 318° |
| 2026-05-08 12:30 | 39.46936 | -0.75695 | 19853 ft | 396 kts | 317° |
| 2026-05-08 12:31 | 39.49170 | -0.77805 | 20441 ft | 398 kts | 317° |
| 2026-05-08 12:31 | 39.51402 | -0.79943 | 21016 ft | 401 kts | 316° |
| 2026-05-08 12:31 | 39.53630 | -0.82092 | 21540 ft | 406 kts | 316° |
| 2026-05-08 12:31 | 39.55899 | -0.84285 | 22045 ft | 408 kts | 316° |
| 2026-05-08 12:32 | 39.58178 | -0.86488 | 22566 ft | 410 kts | 316° |
| 2026-05-08 12:32 | 39.60477 | -0.88713 | 23109 ft | 414 kts | 316° |
| 2026-05-08 12:32 | 39.62792 | -0.90953 | 23647 ft | 416 kts | 316° |
| 2026-05-08 12:32 | 39.65117 | -0.93203 | 24095 ft | 418 kts | 316° |
| 2026-05-08 12:33 | 39.67456 | -0.95469 | 24558 ft | 420 kts | 316° |
| 2026-05-08 12:33 | 39.69784 | -0.97755 | 25032 ft | 419 kts | 313° |
| 2026-05-08 12:33 | 39.71664 | -1.00537 | 25500 ft | 404 kts | 295° |
| 2026-05-08 12:33 | 39.73067 | -1.03685 | 26016 ft | 403 kts | 293° |
| 2026-05-08 12:34 | 39.74421 | -1.06868 | 26516 ft | 403 kts | 292° |
| 2026-05-08 12:34 | 39.75776 | -1.10067 | 27033 ft | 404 kts | 292° |
| 2026-05-08 12:34 | 39.77139 | -1.13264 | 27549 ft | 404 kts | 293° |
| 2026-05-08 12:34 | 39.78511 | -1.16455 | 28080 ft | 404 kts | 293° |
| 2026-05-08 12:35 | 39.79888 | -1.19635 | 28624 ft | 403 kts | 293° |
| 2026-05-08 12:35 | 39.81269 | -1.22814 | 29180 ft | 403 kts | 293° |
| 2026-05-08 12:35 | 39.82645 | -1.25982 | 29733 ft | 402 kts | 293° |
| 2026-05-08 12:35 | 39.84018 | -1.29143 | 29969 ft | 404 kts | 293° |
| 2026-05-08 12:36 | 39.86773 | -1.35500 | 29978 ft | 399 kts | 293° |
| 2026-05-08 12:36 | 39.89494 | -1.41791 | 30003 ft | 400 kts | 293° |
| 2026-05-08 12:37 | 39.92227 | -1.48131 | 30002 ft | 402 kts | 293° |
| 2026-05-08 12:37 | 39.94967 | -1.54500 | 30007 ft | 404 kts | 293° |
| 2026-05-08 12:38 | 39.97693 | -1.60847 | 30013 ft | 403 kts | 293° |
| 2026-05-08 12:38 | 40.00426 | -1.67224 | 30010 ft | 402 kts | 293° |
| 2026-05-08 12:39 | 40.03147 | -1.73587 | 30001 ft | 401 kts | 293° |
| 2026-05-08 12:39 | 40.05857 | -1.79940 | 30004 ft | 400 kts | 292° |
| 2026-05-08 12:40 | 40.08555 | -1.86277 | 29995 ft | 399 kts | 292° |
| 2026-05-08 12:40 | 40.11241 | -1.92599 | 30000 ft | 398 kts | 292° |
| 2026-05-08 12:41 | 40.13917 | -1.98909 | 29998 ft | 397 kts | 292° |
| 2026-05-08 12:41 | 40.16601 | -2.05228 | 29990 ft | 397 kts | 292° |
| 2026-05-08 12:42 | 40.19288 | -2.11531 | 29988 ft | 397 kts | 292° |
| 2026-05-08 12:42 | 40.21969 | -2.17852 | 29979 ft | 397 kts | 292° |
| 2026-05-08 12:43 | 40.24618 | -2.24193 | 29984 ft | 397 kts | 292° |
| 2026-05-08 12:43 | 40.27259 | -2.30538 | 29972 ft | 397 kts | 292° |
| 2026-05-08 12:44 | 40.29899 | -2.36884 | 29964 ft | 396 kts | 292° |
| 2026-05-08 12:44 | 40.32534 | -2.43230 | 29967 ft | 396 kts | 292° |
| 2026-05-08 12:45 | 40.35164 | -2.49573 | 29952 ft | 396 kts | 292° |
| 2026-05-08 12:45 | 40.38025 | -2.55762 | 29960 ft | 403 kts | 302° |
| 2026-05-08 12:46 | 40.41795 | -2.61262 | 29960 ft | 407 kts | 306° |
| 2026-05-08 12:46 | 40.45640 | -2.66723 | 29956 ft | 407 kts | 306° |
| 2026-05-08 12:47 | 40.49434 | -2.72167 | 29961 ft | 407 kts | 305° |
| 2026-05-08 12:47 | 40.53239 | -2.77671 | 29949 ft | 407 kts | 305° |
| 2026-05-08 12:48 | 40.57060 | -2.83220 | 29949 ft | 406 kts | 305° |
| 2026-05-08 12:48 | 40.60849 | -2.88733 | 29945 ft | 406 kts | 305° |
| 2026-05-08 12:49 | 40.64631 | -2.94245 | 29952 ft | 406 kts | 305° |
| 2026-05-08 12:49 | 40.68386 | -2.99728 | 29956 ft | 406 kts | 305° |
| 2026-05-08 12:50 | 40.72163 | -3.05254 | 29953 ft | 405 kts | 305° |
| 2026-05-08 12:50 | 40.75932 | -3.10777 | 29954 ft | 405 kts | 305° |
| 2026-05-08 12:51 | 40.81585 | -3.19079 | 29959 ft | 405 kts | 305° |
| 2026-05-08 12:51 | 40.83693 | -3.21598 | 29938 ft | 418 kts | 320° |
| 2026-05-08 12:52 | 40.86373 | -3.23223 | 29958 ft | 433 kts | 337° |
| 2026-05-08 12:52 | 40.92526 | -3.23351 | 29972 ft | 457 kts | 4° |
| 2026-05-08 12:52 | 40.95659 | -3.22577 | 29950 ft | 459 kts | 6° |
| 2026-05-08 12:53 | 41.01941 | -3.21000 | 29952 ft | 459 kts | 4° |
| 2026-05-08 12:53 | 41.08238 | -3.19588 | 29973 ft | 460 kts | 4° |
| 2026-05-08 12:54 | 41.14561 | -3.18167 | 29960 ft | 462 kts | 5° |
| 2026-05-08 12:54 | 41.20906 | -3.16729 | 29946 ft | 463 kts | 5° |
| 2026-05-08 12:55 | 41.27263 | -3.15282 | 29945 ft | 463 kts | 5° |
| 2026-05-08 12:55 | 41.33572 | -3.13845 | 29950 ft | 462 kts | 6° |
| 2026-05-08 12:56 | 41.39915 | -3.12399 | 29930 ft | 463 kts | 6° |
| 2026-05-08 12:56 | 41.46263 | -3.10948 | 29933 ft | 462 kts | 7° |
| 2026-05-08 12:57 | 41.52597 | -3.09501 | 29927 ft | 461 kts | 7° |
| 2026-05-08 12:57 | 41.55756 | -3.08786 | 29774 ft | 459 kts | 8° |
| 2026-05-08 12:57 | 41.58881 | -3.08080 | 29474 ft | 453 kts | 8° |
| 2026-05-08 12:58 | 41.61972 | -3.07381 | 29173 ft | 447 kts | 8° |
| 2026-05-08 12:58 | 41.65026 | -3.06689 | 28898 ft | 443 kts | 8° |
| 2026-05-08 12:58 | 41.68050 | -3.06003 | 28435 ft | 438 kts | 9° |
| 2026-05-08 12:58 | 41.71039 | -3.05324 | 27973 ft | 433 kts | 9° |
| 2026-05-08 12:59 | 41.73996 | -3.04651 | 27512 ft | 429 kts | 9° |
| 2026-05-08 12:59 | 41.76920 | -3.03982 | 27052 ft | 425 kts | 9° |
| 2026-05-08 12:59 | 41.79818 | -3.03316 | 26587 ft | 421 kts | 9° |
| 2026-05-08 12:59 | 41.82698 | -3.02653 | 26127 ft | 418 kts | 10° |
| 2026-05-08 13:00 | 41.85554 | -3.01995 | 25670 ft | 415 kts | 10° |
| 2026-05-08 13:00 | 41.88393 | -3.01341 | 25223 ft | 413 kts | 10° |
| 2026-05-08 13:00 | 41.91216 | -3.00689 | 24773 ft | 410 kts | 10° |
| 2026-05-08 13:00 | 41.94019 | -3.00042 | 24323 ft | 408 kts | 10° |
| 2026-05-08 13:01 | 41.96811 | -2.99397 | 23873 ft | 406 kts | 10° |
| 2026-05-08 13:01 | 41.99595 | -2.98754 | 23405 ft | 405 kts | 11° |
| 2026-05-08 13:01 | 42.02365 | -2.98112 | 22881 ft | 403 kts | 11° |
| 2026-05-08 13:01 | 42.05119 | -2.97475 | 22388 ft | 400 kts | 11° |
| 2026-05-08 13:02 | 42.07854 | -2.96840 | 21951 ft | 397 kts | 11° |
| 2026-05-08 13:02 | 42.10565 | -2.96211 | 21501 ft | 394 kts | 11° |
| 2026-05-08 13:02 | 42.13255 | -2.95586 | 21055 ft | 392 kts | 11° |
| 2026-05-08 13:02 | 42.15930 | -2.94964 | 20616 ft | 389 kts | 11° |
| 2026-05-08 13:03 | 42.18588 | -2.94346 | 20199 ft | 386 kts | 11° |
| 2026-05-08 13:03 | 42.21233 | -2.93730 | 19750 ft | 384 kts | 11° |
| 2026-05-08 13:03 | 42.23860 | -2.93118 | 19325 ft | 383 kts | 11° |
| 2026-05-08 13:03 | 42.26477 | -2.92507 | 18893 ft | 380 kts | 11° |
| 2026-05-08 13:04 | 42.29075 | -2.91900 | 18468 ft | 379 kts | 10° |
| 2026-05-08 13:04 | 42.31638 | -2.91301 | 18035 ft | 378 kts | 11° |
| 2026-05-08 13:04 | 42.34217 | -2.90698 | 17554 ft | 376 kts | 11° |
| 2026-05-08 13:04 | 42.36814 | -2.90010 | 17090 ft | 374 kts | 12° |
| 2026-05-08 13:05 | 42.39334 | -2.89404 | 16671 ft | 371 kts | 10° |
| 2026-05-08 13:05 | 42.41877 | -2.88851 | 16252 ft | 369 kts | 10° |
| 2026-05-08 13:05 | 42.44394 | -2.88280 | 15845 ft | 366 kts | 10° |
| 2026-05-08 13:05 | 42.46907 | -2.87829 | 15432 ft | 364 kts | 1° |
| 2026-05-08 13:06 | 42.49428 | -2.88090 | 15049 ft | 361 kts | 352° |
| 2026-05-08 13:06 | 42.51905 | -2.88561 | 14658 ft | 359 kts | 351° |
| 2026-05-08 13:06 | 42.54369 | -2.89066 | 14267 ft | 357 kts | 351° |
| 2026-05-08 13:06 | 42.56820 | -2.89577 | 13888 ft | 355 kts | 351° |
| 2026-05-08 13:07 | 42.59254 | -2.90088 | 13480 ft | 353 kts | 351° |
| 2026-05-08 13:07 | 42.61679 | -2.90599 | 13069 ft | 352 kts | 351° |
| 2026-05-08 13:07 | 42.64095 | -2.91107 | 12625 ft | 350 kts | 351° |
| 2026-05-08 13:07 | 42.66463 | -2.91804 | 12135 ft | 349 kts | 341° |
| 2026-05-08 13:08 | 42.68842 | -2.92405 | 11619 ft | 351 kts | 0° |
| 2026-05-08 13:08 | 42.71233 | -2.91826 | 11133 ft | 350 kts | 19° |
| 2026-05-08 13:08 | 42.73511 | -2.90650 | 10653 ft | 350 kts | 25° |
| 2026-05-08 13:08 | 42.75698 | -2.89194 | 10165 ft | 350 kts | 31° |
| 2026-05-08 13:09 | 42.77781 | -2.87501 | 9675 ft | 349 kts | 35° |
| 2026-05-08 13:09 | 42.79692 | -2.85479 | 9154 ft | 347 kts | 43° |
| 2026-05-08 13:09 | 42.81476 | -2.83269 | 8624 ft | 346 kts | 46° |
| 2026-05-08 13:09 | 42.82904 | -2.80670 | 8100 ft | 341 kts | 68° |
| 2026-05-08 13:10 | 42.83563 | -2.77621 | 7615 ft | 334 kts | 81° |
| 2026-05-08 13:10 | 42.84412 | -2.74666 | 7099 ft | 340 kts | 59° |
| 2026-05-08 13:10 | 42.86045 | -2.72329 | 6618 ft | 344 kts | 36° |
| 2026-05-08 13:10 | 42.88120 | -2.70707 | 6138 ft | 343 kts | 30° |
| 2026-05-08 13:11 | 42.90137 | -2.68974 | 5636 ft | 342 kts | 37° |
| 2026-05-08 13:11 | 42.92012 | -2.66997 | 5172 ft | 338 kts | 43° |
| 2026-05-08 13:11 | 42.93686 | -2.64838 | 5027 ft | 323 kts | 49° |
| 2026-05-08 13:11 | 42.95307 | -2.62824 | 4997 ft | 309 kts | 38° |
| 2026-05-08 13:12 | 42.97081 | -2.61290 | 4984 ft | 296 kts | 29° |
| 2026-05-08 13:12 | 42.98712 | -2.59741 | 4978 ft | 278 kts | 52° |
| 2026-05-08 13:12 | 42.99623 | -2.57562 | 5014 ft | 255 kts | 75° |
| 2026-05-08 13:12 | 43.00140 | -2.55288 | 4952 ft | 247 kts | 78° |
| 2026-05-08 13:13 | 43.00941 | -2.53247 | 4888 ft | 243 kts | 50° |
| 2026-05-08 13:13 | 43.02348 | -2.52087 | 4839 ft | 239 kts | 15° |
| 2026-05-08 13:13 | 43.03939 | -2.52072 | 4915 ft | 216 kts | 339° |
| 2026-05-08 13:13 | 43.05106 | -2.53096 | 4995 ft | 198 kts | 306° |
| 2026-05-08 13:14 | 43.05853 | -2.54653 | 5142 ft | 191 kts | 288° |
| 2026-05-08 13:14 | 43.05965 | -2.56405 | 4935 ft | 195 kts | 242° |
| 2026-05-08 13:14 | 43.05063 | -2.57659 | 4872 ft | 180 kts | 200° |
| 2026-05-08 13:14 | 43.03886 | -2.58112 | 4873 ft | 169 kts | 192° |
| 2026-05-08 13:15 | 43.02805 | -2.58520 | 4984 ft | 162 kts | 201° |
| 2026-05-08 13:15 | 43.01780 | -2.59221 | 4986 ft | 163 kts | 208° |
| 2026-05-08 13:15 | 43.00825 | -2.60069 | 4995 ft | 167 kts | 212° |
| 2026-05-08 13:15 | 42.99851 | -2.60973 | 4771 ft | 174 kts | 211° |
| 2026-05-08 13:16 | 42.98870 | -2.61898 | 4755 ft | 166 kts | 211° |
| 2026-05-08 13:16 | 42.97929 | -2.62805 | 4529 ft | 168 kts | 213° |
| 2026-05-08 13:16 | 42.97008 | -2.63776 | 4261 ft | 163 kts | 213° |
| 2026-05-08 13:16 | 42.96434 | -2.64398 | 4183 ft | 155 kts | 214° |
| 2026-05-08 13:17 | 42.95585 | -2.65285 | 3892 ft | 154 kts | 212° |
| 2026-05-08 13:17 | 42.94708 | -2.66149 | 3475 ft | 155 kts | 211° |
| 2026-05-08 13:17 | 42.93818 | -2.66986 | 3028 ft | 157 kts | 209° |
| 2026-05-08 13:17 | 42.92651 | -2.68123 | 2639 ft | 146 kts | 214° |
| 2026-05-08 13:18 | 42.91800 | -2.68968 | 2382 ft | 158 kts | 213° |
| 2026-05-08 13:18 | 42.91182 | -2.69575 | 2192 ft | 165 kts | 213° |
| 2026-05-08 13:18 | 42.90251 | -2.70488 | 1951 ft | 159 kts | 215° |
| 2026-05-08 13:18 | 42.89365 | -2.71385 | 1708 ft | 157 kts | 213° |
| 2026-05-08 13:19 | 42.88539 | -2.72178 | 1674 ft | 128 kts | 221° |
| 2026-05-08 13:19 | 42.87942 | -2.72780 | 1676 ft | 85 kts | 216° |
| 2026-05-08 13:19 | 42.87582 | -2.73134 | 1677 ft | 42 kts | 216° |
| 2026-05-08 13:19 | 42.87400 | -2.73314 | 1675 ft | 30 kts | 216° |
| 2026-05-08 13:20 | 42.87234 | -2.73476 | 1675 ft | 28 kts | 216° |
| 2026-05-08 13:20 | 42.87080 | -2.73630 | 1677 ft | 27 kts | 221° |
| 2026-05-08 13:20 | 42.87102 | -2.73846 | 1685 ft | 25 kts | 315° |
| 2026-05-08 13:20 | 42.87240 | -2.73780 | 1676 ft | 23 kts | 37° |
| 2026-05-08 13:21 | 42.87366 | -2.73651 | 1676 ft | 22 kts | 36° |
| 2026-05-08 13:21 | 42.87488 | -2.73531 | 1679 ft | 22 kts | 36° |
| 2026-05-08 13:21 | 42.87611 | -2.73411 | 1680 ft | 21 kts | 36° |
| 2026-05-08 13:21 | 42.87710 | -2.73315 | 1680 ft | 12 kts | 27° |
| 2026-05-08 13:22 | 42.87779 | -2.73357 | 1681 ft | 12 kts | 307° |
| 2026-05-08 13:22 | 42.87835 | -2.73434 | 1678 ft | 12 kts | 354° |
| 2026-05-08 13:22 | 42.87906 | -2.73385 | 1676 ft | 11 kts | 19° |
| 2026-05-08 13:22 | 42.87967 | -2.73439 | 1676 ft | 11 kts | 306° |
| 2026-05-08 13:23 | 42.88011 | -2.73522 | 1681 ft | 8 kts | 306° |
| 2026-05-08 13:23 | 42.88059 | -2.73522 | 1679 ft | 8 kts | 38° |
| 2026-05-08 13:23 | 42.88094 | -2.73487 | 1681 ft | 2 kts | 36° |
| 2026-05-08 13:23 | 42.88095 | -2.73486 | 1681 ft | 0 kts | 36° |